Time,TemperatureF,DewpointF,PressureIn,WindDirection,WindDirectionDegrees,WindSpeedMPH,WindSpeedGustMPH,Humidity,HourlyPrecipIn,Conditions,Clouds,dailyrainin,SolarRadiationWatts/m^2,SoftwareType,DateUTC
2013-06-07 00:03:00,70.0,68.0,-100.00,NNW,340,8.0,13.0,95,0.01,,,-99.99,0.000000,,2013-06-07 04:03:00,
2013-06-07 00:23:00,70.0,68.0,-100.00,NNW,340,8.0,13.0,95,0.01,,,-99.99,0.000000,,2013-06-07 04:23:00,
2013-06-07 00:33:00,70.0,68.0,-100.00,NNW,340,8.0,13.0,95,0.01,,,-99.99,0.000000,,2013-06-07 04:33:00,
2013-06-07 00:42:00,70.0,68.0,-100.00,NNW,340,8.0,13.0,95,0.01,,,-99.99,0.000000,,2013-06-07 04:42:00,
2013-06-07 00:53:00,70.0,68.0,-100.00,NNW,340,8.0,13.0,95,0.01,,,-99.99,0.000000,,2013-06-07 04:53:00,
2013-06-07 01:23:00,70.0,69.0,-100.00,NW,309,6.0,11.0,96,0.01,,,0.53,0.000000,,2013-06-07 05:23:00,
2013-06-07 01:32:00,70.0,69.0,-100.00,NW,309,6.0,11.0,96,0.01,,,0.53,0.000000,,2013-06-07 05:32:00,
2013-06-07 01:43:00,70.0,69.0,-100.00,NW,309,6.0,11.0,96,0.01,,,0.53,0.000000,,2013-06-07 05:43:00,
2013-06-07 01:52:00,70.0,69.0,-100.00,NW,309,6.0,11.0,96,0.01,,,0.53,0.000000,,2013-06-07 05:52:00,
2013-06-07 02:02:00,70.0,69.0,-100.00,NW,309,6.0,11.0,96,0.01,,,0.53,0.000000,,2013-06-07 06:02:00,
2013-06-07 02:22:00,70.0,69.0,-100.00,NNW,334,6.0,10.0,96,0.00,,,0.51,0.000000,,2013-06-07 06:22:00,
2013-06-07 02:32:00,70.0,69.0,-100.00,NNW,334,6.0,10.0,96,0.00,,,0.51,0.000000,,2013-06-07 06:32:00,
2013-06-07 02:43:00,70.0,69.0,-100.00,NNW,334,6.0,10.0,96,0.00,,,0.51,0.000000,,2013-06-07 06:43:00,
2013-06-07 02:52:00,70.0,69.0,-100.00,NNW,334,6.0,10.0,96,0.00,,,0.51,0.000000,,2013-06-07 06:52:00,
2013-06-07 03:02:00,70.0,69.0,-100.00,NNW,334,6.0,10.0,96,0.00,,,0.51,0.000000,,2013-06-07 07:02:00,
2013-06-07 03:22:00,69.0,68.0,-100.00,WNW,289,6.0,10.0,97,0.00,,,0.51,0.000000,,2013-06-07 07:22:00,
2013-06-07 03:32:00,69.0,68.0,-100.00,WNW,289,6.0,10.0,97,0.00,,,0.51,0.000000,,2013-06-07 07:32:00,
2013-06-07 03:42:00,69.0,68.0,-100.00,WNW,289,6.0,10.0,97,0.00,,,0.51,0.000000,,2013-06-07 07:42:00,
2013-06-07 03:52:00,69.0,68.0,-100.00,WNW,289,6.0,10.0,97,0.00,,,0.51,0.000000,,2013-06-07 07:52:00,
2013-06-07 04:02:00,69.0,68.0,-100.00,WNW,289,6.0,10.0,97,0.00,,,0.51,0.000000,,2013-06-07 08:02:00,
2013-06-07 04:22:00,69.0,68.0,-100.00,WNW,295,4.0,7.0,97,0.00,,,0.51,0.000000,,2013-06-07 08:22:00,
2013-06-07 04:32:00,69.0,68.0,-100.00,WNW,295,4.0,7.0,97,0.00,,,0.51,0.000000,,2013-06-07 08:32:00,
2013-06-07 04:43:00,69.0,68.0,-100.00,WNW,295,4.0,7.0,97,0.00,,,0.51,0.000000,,2013-06-07 08:43:00,
2013-06-07 04:52:00,69.0,68.0,-100.00,WNW,295,4.0,7.0,97,0.00,,,0.51,0.000000,,2013-06-07 08:52:00,
2013-06-07 05:02:00,69.0,68.0,-100.00,WNW,295,4.0,7.0,97,0.00,,,0.51,0.000000,,2013-06-07 09:02:00,
2013-06-07 05:03:00,69.0,68.0,-100.00,West,275,4.0,9.0,97,0.00,,,0.51,0.000000,,2013-06-07 09:03:00,
2013-06-07 05:22:00,69.0,68.0,-100.00,West,275,4.0,9.0,97,0.00,,,0.51,0.000000,,2013-06-07 09:22:00,
2013-06-07 05:32:00,69.0,68.0,-100.00,West,275,4.0,9.0,97,0.00,,,0.51,0.000000,,2013-06-07 09:32:00,
2013-06-07 05:43:00,69.0,68.0,-100.00,West,275,4.0,9.0,97,0.00,,,0.51,0.000000,,2013-06-07 09:43:00,
2013-06-07 05:53:00,69.0,68.0,-100.00,West,275,4.0,9.0,97,0.00,,,0.51,0.000000,,2013-06-07 09:53:00,
2013-06-07 06:23:00,68.0,67.0,-100.00,West,262,6.0,9.0,98,0.00,,,0.51,0.000000,,2013-06-07 10:23:00,
2013-06-07 06:33:00,68.0,67.0,-100.00,West,262,6.0,9.0,98,0.00,,,0.51,0.000000,,2013-06-07 10:33:00,
2013-06-07 06:43:00,68.0,67.0,-100.00,West,262,6.0,9.0,98,0.00,,,0.51,0.000000,,2013-06-07 10:43:00,
2013-06-07 06:53:00,68.0,67.0,-100.00,West,262,6.0,9.0,98,0.00,,,0.51,0.000000,,2013-06-07 10:53:00,
2013-06-07 07:02:00,68.0,67.0,-100.00,West,262,6.0,9.0,98,0.00,,,0.51,0.000000,,2013-06-07 11:02:00,
2013-06-07 07:22:00,69.0,68.0,-100.00,WSW,253,6.0,9.0,96,0.00,,,0.51,4.000000,,2013-06-07 11:22:00,
2013-06-07 07:32:00,69.0,68.0,-100.00,WSW,253,6.0,9.0,96,0.00,,,0.51,4.000000,,2013-06-07 11:32:00,
2013-06-07 07:42:00,69.0,68.0,-100.00,WSW,253,6.0,9.0,96,0.00,,,0.51,4.000000,,2013-06-07 11:42:00,
2013-06-07 07:52:00,69.0,68.0,-100.00,WSW,253,6.0,9.0,96,0.00,,,0.51,4.000000,,2013-06-07 11:52:00,
2013-06-07 08:02:00,69.0,68.0,-100.00,WSW,253,6.0,9.0,96,0.00,,,0.51,4.000000,,2013-06-07 12:02:00,
2013-06-07 08:22:00,69.0,68.0,-100.00,SW,233,5.0,9.0,95,0.00,,,0.51,76.000000,,2013-06-07 12:22:00,
2013-06-07 08:33:00,69.0,68.0,-100.00,SW,233,5.0,9.0,95,0.00,,,0.51,76.000000,,2013-06-07 12:33:00,
2013-06-07 08:42:00,69.0,68.0,-100.00,SW,233,5.0,9.0,95,0.00,,,0.51,76.000000,,2013-06-07 12:42:00,
2013-06-07 08:52:00,69.0,68.0,-100.00,SW,233,5.0,9.0,95,0.00,,,0.51,76.000000,,2013-06-07 12:52:00,
2013-06-07 09:02:00,69.0,68.0,-100.00,SW,233,5.0,9.0,95,0.00,,,0.51,76.000000,,2013-06-07 13:02:00,
2013-06-07 09:22:00,73.0,70.0,-100.00,WSW,241,7.0,12.0,89,0.00,,,0.51,269.000000,,2013-06-07 13:22:00,
2013-06-07 09:32:00,73.0,70.0,-100.00,WSW,241,7.0,12.0,89,0.00,,,0.51,269.000000,,2013-06-07 13:32:00,
2013-06-07 09:43:00,73.0,70.0,-100.00,WSW,241,7.0,12.0,89,0.00,,,0.51,269.000000,,2013-06-07 13:43:00,
2013-06-07 09:52:00,73.0,70.0,-100.00,WSW,241,7.0,12.0,89,0.00,,,0.51,269.000000,,2013-06-07 13:52:00,
2013-06-07 10:02:00,73.0,70.0,-100.00,WSW,241,7.0,12.0,89,0.00,,,0.51,269.000000,,2013-06-07 14:02:00,
2013-06-07 10:03:00,75.0,70.0,-100.00,SW,230,7.0,11.0,85,0.01,,,0.51,358.000000,,2013-06-07 14:03:00,
2013-06-07 10:23:00,75.0,70.0,-100.00,SW,230,7.0,11.0,85,0.01,,,0.51,358.000000,,2013-06-07 14:23:00,
2013-06-07 10:33:00,75.0,70.0,-100.00,SW,230,7.0,11.0,85,0.01,,,0.51,358.000000,,2013-06-07 14:33:00,
2013-06-07 10:42:00,75.0,70.0,-100.00,SW,230,7.0,11.0,85,0.01,,,0.51,358.000000,,2013-06-07 14:42:00,
2013-06-07 10:52:00,75.0,70.0,-100.00,SW,230,7.0,11.0,85,0.01,,,0.51,358.000000,,2013-06-07 14:52:00,
2013-06-07 11:03:00,79.0,71.0,-100.00,SW,227,8.0,13.0,76,0.00,,,0.51,747.000000,,2013-06-07 15:03:00,
2013-06-07 11:23:00,79.0,71.0,-100.00,SW,227,8.0,13.0,76,0.00,,,0.51,747.000000,,2013-06-07 15:23:00,
2013-06-07 11:33:00,79.0,71.0,-100.00,SW,227,8.0,13.0,76,0.00,,,0.51,747.000000,,2013-06-07 15:33:00,
2013-06-07 11:43:00,79.0,71.0,-100.00,SW,227,8.0,13.0,76,0.00,,,0.51,747.000000,,2013-06-07 15:43:00,
2013-06-07 11:53:00,79.0,71.0,-100.00,SW,227,8.0,13.0,76,0.00,,,0.51,747.000000,,2013-06-07 15:53:00,
2013-06-07 12:03:00,82.0,70.0,-100.00,SW,225,9.0,15.0,68,0.00,,,0.44,785.000000,,2013-06-07 16:03:00,
2013-06-07 12:22:00,82.0,70.0,-100.00,SW,225,9.0,15.0,68,0.00,,,0.44,785.000000,,2013-06-07 16:22:00,
2013-06-07 12:33:00,82.0,70.0,-100.00,SW,225,9.0,15.0,68,0.00,,,0.44,785.000000,,2013-06-07 16:33:00,
2013-06-07 12:43:00,82.0,70.0,-100.00,SW,225,9.0,15.0,68,0.00,,,0.44,785.000000,,2013-06-07 16:43:00,
2013-06-07 12:53:00,82.0,70.0,-100.00,SW,225,9.0,15.0,68,0.00,,,0.44,785.000000,,2013-06-07 16:53:00,
2013-06-07 13:23:00,84.0,70.0,-100.00,SW,228,10.0,15.0,63,0.00,,,0.41,933.000000,,2013-06-07 17:23:00,
2013-06-07 13:32:00,84.0,70.0,-100.00,SW,228,10.0,15.0,63,0.00,,,0.41,933.000000,,2013-06-07 17:32:00,
2013-06-07 13:43:00,84.0,70.0,-100.00,SW,228,10.0,15.0,63,0.00,,,0.41,933.000000,,2013-06-07 17:43:00,
2013-06-07 13:53:00,84.0,70.0,-100.00,SW,228,10.0,15.0,63,0.00,,,0.41,933.000000,,2013-06-07 17:53:00,
2013-06-07 14:03:00,86.0,68.0,-100.00,WSW,241,10.0,17.0,55,0.00,,,0.32,1097.000000,,2013-06-07 18:03:00,
2013-06-07 14:28:00,86.0,68.0,-100.00,WSW,241,10.0,17.0,55,0.00,,,0.32,1097.000000,,2013-06-07 18:28:00,
2013-06-07 14:38:00,86.0,68.0,-100.00,WSW,241,10.0,17.0,55,0.00,,,0.32,1097.000000,,2013-06-07 18:38:00,
2013-06-07 14:45:00,86.0,68.0,-100.00,WSW,241,10.0,17.0,55,0.00,,,0.32,1097.000000,,2013-06-07 18:45:00,
2013-06-07 15:03:00,87.0,68.0,-100.00,WSW,246,10.0,20.0,53,0.00,,,0.32,995.000000,,2013-06-07 19:03:00,
2013-06-07 15:40:00,87.0,68.0,-100.00,WSW,246,10.0,20.0,53,0.00,,,0.32,995.000000,,2013-06-07 19:40:00,
2013-06-07 15:51:00,87.0,68.0,-100.00,WSW,246,10.0,20.0,53,0.00,,,0.32,995.000000,,2013-06-07 19:51:00,
2013-06-07 15:59:00,87.0,68.0,-100.00,WSW,246,10.0,20.0,53,0.00,,,0.32,995.000000,,2013-06-07 19:59:00,
2013-06-07 16:03:00,85.0,69.0,-100.00,SSW,209,7.0,16.0,58,0.00,,,0.31,810.000000,,2013-06-07 20:03:00,
2013-06-07 16:28:00,85.0,69.0,-100.00,SSW,209,7.0,16.0,58,0.00,,,0.31,810.000000,,2013-06-07 20:28:00,
2013-06-07 16:42:00,85.0,69.0,-100.00,SSW,209,7.0,16.0,58,0.00,,,0.31,810.000000,,2013-06-07 20:42:00,
2013-06-07 16:59:00,85.0,69.0,-100.00,SSW,209,7.0,16.0,58,0.00,,,0.31,810.000000,,2013-06-07 20:59:00,
2013-06-07 17:03:00,89.0,62.0,-100.00,WSW,238,14.0,20.0,41,0.00,,,0.27,855.000000,,2013-06-07 21:03:00,
2013-06-07 17:30:00,89.0,62.0,-100.00,WSW,238,14.0,20.0,41,0.00,,,0.27,855.000000,,2013-06-07 21:30:00,
2013-06-07 17:43:00,89.0,62.0,-100.00,WSW,238,14.0,20.0,41,0.00,,,0.27,855.000000,,2013-06-07 21:43:00,
2013-06-07 18:03:00,84.0,66.0,-100.00,WSW,242,9.0,21.0,54,0.00,,,0.23,230.000000,,2013-06-07 22:03:00,
2013-06-07 18:39:00,84.0,66.0,-100.00,WSW,242,9.0,21.0,54,0.00,,,0.23,230.000000,,2013-06-07 22:39:00,
2013-06-07 18:49:00,84.0,66.0,-100.00,WSW,242,9.0,21.0,54,0.00,,,0.23,230.000000,,2013-06-07 22:49:00,
2013-06-07 19:00:00,84.0,66.0,-100.00,WSW,242,9.0,21.0,54,0.00,,,0.23,230.000000,,2013-06-07 23:00:00,
2013-06-07 19:03:00,83.0,65.0,-100.00,SW,227,9.0,16.0,55,0.00,,,0.20,281.000000,,2013-06-07 23:03:00,
2013-06-07 19:33:00,83.0,65.0,-100.00,SW,227,9.0,16.0,55,0.00,,,0.20,281.000000,,2013-06-07 23:33:00,
2013-06-07 19:41:00,83.0,65.0,-100.00,SW,227,9.0,16.0,55,0.00,,,0.20,281.000000,,2013-06-07 23:41:00,
2013-06-07 19:55:00,83.0,65.0,-100.00,SW,227,9.0,16.0,55,0.00,,,0.20,281.000000,,2013-06-07 23:55:00,
2013-06-07 20:03:00,78.0,67.0,-100.00,WNW,300,13.0,22.0,68,0.00,,,0.16,85.000000,,2013-06-08 00:03:00,
2013-06-07 20:37:00,78.0,67.0,-100.00,WNW,300,13.0,22.0,68,0.00,,,0.16,85.000000,,2013-06-08 00:37:00,
2013-06-07 20:48:00,78.0,67.0,-100.00,WNW,300,13.0,22.0,68,0.00,,,0.16,85.000000,,2013-06-08 00:48:00,
2013-06-07 21:02:00,78.0,67.0,-100.00,WNW,300,13.0,22.0,68,0.00,,,0.16,85.000000,,2013-06-08 01:02:00,
2013-06-07 21:03:00,72.0,68.0,-100.00,NW,318,7.0,18.0,88,0.06,,,0.16,12.000000,,2013-06-08 01:03:00,
2013-06-07 21:29:00,72.0,68.0,-100.00,NW,318,7.0,18.0,88,0.06,,,0.16,12.000000,,2013-06-08 01:29:00,
2013-06-07 21:40:00,72.0,68.0,-100.00,NW,318,7.0,18.0,88,0.06,,,0.16,12.000000,,2013-06-08 01:40:00,
2013-06-07 21:49:00,72.0,68.0,-100.00,NW,318,7.0,18.0,88,0.06,,,0.16,12.000000,,2013-06-08 01:49:00,
2013-06-07 22:03:00,72.0,70.0,-100.00,WSW,242,2.0,5.0,92,0.00,,,0.14,0.000000,,2013-06-08 02:03:00,
2013-06-07 22:37:00,72.0,70.0,-100.00,WSW,242,2.0,5.0,92,0.00,,,0.14,0.000000,,2013-06-08 02:37:00,
2013-06-07 22:49:00,72.0,70.0,-100.00,WSW,242,2.0,5.0,92,0.00,,,0.14,0.000000,,2013-06-08 02:49:00,
2013-06-07 23:00:00,72.0,70.0,-100.00,WSW,242,2.0,5.0,92,0.00,,,0.14,0.000000,,2013-06-08 03:00:00,
2013-06-07 23:03:00,71.0,70.0,-100.00,SW,220,2.0,6.0,96,0.00,,,0.09,0.000000,,2013-06-08 03:03:00,
2013-06-07 23:27:00,71.0,70.0,-100.00,SW,220,2.0,6.0,96,0.00,,,0.09,0.000000,,2013-06-08 03:27:00,
2013-06-07 23:40:00,71.0,70.0,-100.00,SW,220,2.0,6.0,96,0.00,,,0.09,0.000000,,2013-06-08 03:40:00,
2013-06-07 23:54:00,71.0,70.0,-100.00,SW,220,2.0,6.0,96,0.00,,,0.09,0.000000,,2013-06-08 03:54:00,